»·PEaware :: N143VT KSAN-KTSP

N143VT :: KSAN-KTSP

FLIGHT INFORMATION

Flight Status: Arrived
Operator: Privately registered:
United States
More flights under this callsign
Pilot: Justin B. (16492)
Aircraft: Unknown
(EPIC)
More flights by this aircraft type
Origin: KSAN San Diego Intl-Lindbergh
United States
Destination: KTSP Tehachapi Mun
United States
More flights between these airports :: More routes between these airports
Route: FALCC1 SLI V459 BERRI V201 PMD
File this flight plan on PilotEdge
Remarks:
Altitude:
(Current/Filed)
11,000ft
Speed:
(Current/Filed)
250kts
Departed: 03-Oct-17 05:39 PM
Arrived: 03-Oct-17 06:26 PM
Distance/Time
Traveled:
157nm/0:46
Distance/Time
To Go:
Arrived

Flight Plot

Page will automatically refresh every two minutes.

Flight plan parsing failed; only flown route is shown


Map Options




Map Legend


Flown Route
Filed Route
Departure Airport
Arrival Airport
Navaid (VOR, NDB)
Fix

Horizontal Profiles

Position Reports

Time Latitude Longitude Heading Altitude Ground
Speed
03-Oct-17 17:10 32.732231 -117.177228 194 21ft 0kts
03-Oct-17 17:11 32.732231 -117.177228 194 21ft 0kts
03-Oct-17 17:12 32.732231 -117.177228 194 21ft 0kts
03-Oct-17 17:13 32.732231 -117.177228 194 21ft 0kts
03-Oct-17 17:14 32.732231 -117.177228 194 21ft 0kts
03-Oct-17 17:15 32.732231 -117.177228 194 21ft 0kts
03-Oct-17 17:16 32.732231 -117.177228 194 21ft 0kts
03-Oct-17 17:17 32.732231 -117.177228 194 21ft 0kts
03-Oct-17 17:18 32.732231 -117.177228 194 21ft 0kts
03-Oct-17 17:19 32.732231 -117.177228 194 21ft 0kts
03-Oct-17 17:20 32.732231 -117.177228 194 21ft 0kts
03-Oct-17 17:21 32.732231 -117.177228 194 21ft 0kts
03-Oct-17 17:22 32.732231 -117.177228 194 21ft 0kts
03-Oct-17 17:23 32.732231 -117.177228 194 21ft 0kts
03-Oct-17 17:24 32.732231 -117.177228 194 21ft 0kts
03-Oct-17 17:25 32.732231 -117.177228 194 21ft 0kts
03-Oct-17 17:26 32.732231 -117.177228 194 21ft 0kts
03-Oct-17 17:27 32.732231 -117.177228 194 21ft 0kts
03-Oct-17 17:28 32.732231 -117.177228 194 21ft 0kts
03-Oct-17 17:29 32.732231 -117.177228 194 21ft 0kts
03-Oct-17 17:30 32.732231 -117.177228 194 21ft 0kts
03-Oct-17 17:31 32.732231 -117.177228 194 21ft 0kts
03-Oct-17 17:32 32.732231 -117.177228 194 21ft 0kts
03-Oct-17 17:33 32.732230 -117.177228 193 21ft 0kts
03-Oct-17 17:34 32.732230 -117.177228 193 21ft 0kts
03-Oct-17 17:35 32.732230 -117.177229 193 21ft 0kts
03-Oct-17 17:36 32.732230 -117.177229 193 21ft 0kts
03-Oct-17 17:37 32.732230 -117.177229 193 21ft 0kts
03-Oct-17 17:38 32.732230 -117.177229 193 21ft 0kts
03-Oct-17 17:39 32.732230 -117.177229 193 21ft 0kts
03-Oct-17 17:40 32.732219 -117.177232 192 21ft 0kts
03-Oct-17 17:41 32.731013 -117.175495 139 21ft 13kts
03-Oct-17 17:42 32.730387 -117.175204 196 21ft 7kts
03-Oct-17 17:43 32.734000 -117.189465 295 247ft 149kts
03-Oct-17 17:44 32.762465 -117.234227 304 2544ft 171kts
03-Oct-17 17:45 32.790837 -117.278107 303 4931ft 170kts
03-Oct-17 17:46 32.818737 -117.323520 302 6957ft 173kts
03-Oct-17 17:47 32.866236 -117.339136 345 8683ft 185kts
03-Oct-17 17:48 32.916954 -117.349948 345 10175ft 188kts
03-Oct-17 17:49 32.969238 -117.361544 334 10989ft 207kts
03-Oct-17 17:50 33.023759 -117.398332 325 10988ft 244kts
03-Oct-17 17:51 33.082169 -117.439676 324 10990ft 247kts
03-Oct-17 17:52 33.130049 -117.473942 323 10987ft 247kts
03-Oct-17 17:53 33.187241 -117.515106 323 10986ft 247kts
03-Oct-17 17:54 33.245642 -117.557150 323 10985ft 247kts
03-Oct-17 17:55 33.300366 -117.604628 317 10987ft 244kts
03-Oct-17 17:56 33.350800 -117.651287 316 10986ft 244kts
03-Oct-17 17:57 33.404077 -117.700704 316 10989ft 245kts
03-Oct-17 17:58 33.457846 -117.750658 316 10986ft 245kts
03-Oct-17 17:59 33.511466 -117.800562 316 10983ft 245kts
03-Oct-17 18:00 33.565025 -117.850491 316 10982ft 245kts
03-Oct-17 18:01 33.618661 -117.900570 316 10982ft 245kts
03-Oct-17 18:02 33.672116 -117.950563 316 10982ft 246kts
03-Oct-17 18:03 33.725907 -118.000952 316 10982ft 246kts
03-Oct-17 18:04 33.779778 -118.051051 323 10974ft 249kts
03-Oct-17 18:05 33.841565 -118.087961 328 10977ft 252kts
03-Oct-17 18:06 33.904455 -118.124351 328 10975ft 252kts
03-Oct-17 18:07 33.967383 -118.160620 328 10994ft 251kts
03-Oct-17 18:08 34.030044 -118.196767 328 11004ft 251kts
03-Oct-17 18:09 34.092601 -118.232916 328 11006ft 251kts
03-Oct-17 18:10 34.154992 -118.269046 328 10990ft 252kts
03-Oct-17 18:11 34.221944 -118.276795 14 10992ft 271kts
03-Oct-17 18:12 34.291217 -118.243558 18 10993ft 273kts
03-Oct-17 18:13 34.360648 -118.207330 19 10992ft 274kts
03-Oct-17 18:14 34.430424 -118.170471 19 10982ft 275kts
03-Oct-17 18:15 34.500089 -118.133562 18 10978ft 274kts
03-Oct-17 18:16 34.569798 -118.096587 18 10972ft 274kts
03-Oct-17 18:17 34.639458 -118.079363 332 10977ft 252kts
03-Oct-17 18:18 34.701513 -118.117420 323 10973ft 249kts
03-Oct-17 18:19 34.760149 -118.159639 322 10974ft 245kts
03-Oct-17 18:20 34.817029 -118.201708 322 10976ft 243kts
03-Oct-17 18:21 34.874554 -118.244494 322 10977ft 243kts
03-Oct-17 18:22 34.931727 -118.287091 322 10993ft 242kts
03-Oct-17 18:23 34.988862 -118.329775 321 11021ft 241kts
03-Oct-17 18:24 35.056578 -118.350790 352 9598ft 250kts
03-Oct-17 18:25 35.114676 -118.363082 292 8095ft 187kts
03-Oct-17 18:26 35.124337 -118.416738 296 6236ft 161kts
03-Oct-17 18:27 35.142512 -118.454525 262 5078ft 109kts
03-Oct-17 18:28 35.117193 -118.434159 119 4686ft 134kts
03-Oct-17 18:29 35.130628 -118.431630 304 4101ft 86kts
03-Oct-17 18:30 35.135090 -118.440648 165 4004ft 9kts
03-Oct-17 18:31 35.133450 -118.439834 94 4004ft 9kts

Navigation Log

Ident Type
Flight plan parsing failed, navigation log unavailable